Time;durP1;ratioP1;P1;durP2;ratioP2;P2;SDS_P1;SDS_P2;PMS_P1;PMS_P2;Temp;Humidity;BMP_temperature;BMP_pressure;BME280_temperature;BME280_humidity;BME280_pressure;Samples;Min_cycle;Max_cycle;Signal;HPM_P1;HPM_P2
2023/06/05 00:01:22;;;;;;;6.20;2.40;;;;;;;12.67;95.17;102076.94;4993990;28;20034;-92
2023/06/05 00:03:48;;;;;;;5.00;2.57;;;;;;;12.60;96.80;102082.47;4992168;28;20394;-92
2023/06/05 00:06:13;;;;;;;4.63;2.90;;;;;;;12.53;96.76;102076.41;4993267;28;20422;-91
2023/06/05 00:08:38;;;;;;;4.43;2.73;;;;;;;12.51;96.37;102090.09;4990928;28;20170;-91
2023/06/05 00:11:03;;;;;;;4.50;2.60;;;;;;;12.49;95.50;102077.97;4973922;28;20054;-91
2023/06/05 00:13:29;;;;;;;6.70;2.60;;;;;;;12.49;96.23;102072.59;4974861;28;20030;-91
2023/06/05 00:15:54;;;;;;;8.47;2.90;;;;;;;12.49;96.54;102086.84;4977786;28;20394;-92
2023/06/05 00:18:20;;;;;;;5.50;2.70;;;;;;;12.37;97.53;102084.19;4990469;28;20038;-91
2023/06/05 00:20:45;;;;;;;5.45;2.90;;;;;;;12.34;97.32;102078.47;4995736;28;20041;-91
2023/06/05 00:23:11;;;;;;;7.50;3.17;;;;;;;12.30;97.51;102080.84;5003592;28;20049;-92
2023/06/05 00:25:36;;;;;;;5.13;2.70;;;;;;;12.19;98.73;102071.75;4969729;28;20031;-91
2023/06/05 00:28:02;;;;;;;4.32;2.75;;;;;;;12.22;97.98;102073.97;4983934;28;20030;-93
2023/06/05 00:30:27;;;;;;;8.80;2.70;;;;;;;12.15;99.92;102081.34;5002295;28;20068;-91
2023/06/05 00:32:52;;;;;;;5.63;2.70;;;;;;;12.09;99.37;102076.91;5010253;28;20411;-91
2023/06/05 00:35:17;;;;;;;4.10;2.97;;;;;;;12.02;99.91;102076.22;5009614;28;20058;-91
2023/06/05 00:37:46;;;;;;;6.57;2.83;;;;;;;11.96;100.00;102068.03;4999058;28;20034;-91
2023/06/05 00:40:12;;;;;;;5.00;2.80;;;;;;;11.91;100.00;102075.16;4991204;28;20098;-91
2023/06/05 00:42:37;;;;;;;7.40;2.72;;;;;;;11.82;100.00;102061.28;4987424;28;20031;-91
2023/06/05 00:45:03;;;;;;;4.50;2.70;;;;;;;11.81;100.00;102070.41;4974720;28;20221;-92
2023/06/05 00:47:29;;;;;;;5.93;3.08;;;;;;;11.83;100.00;102079.03;4994231;28;20065;-91
2023/06/05 00:49:55;;;;;;;5.60;2.90;;;;;;;11.80;100.00;102076.81;4994585;28;20131;-91
2023/06/05 00:52:21;;;;;;;8.13;3.23;;;;;;;11.75;100.00;102076.69;4973674;28;20374;-91
2023/06/05 00:54:47;;;;;;;8.52;3.17;;;;;;;11.71;100.00;102070.16;4968275;28;20035;-91
2023/06/05 00:57:12;;;;;;;4.83;2.93;;;;;;;11.71;100.00;102072.84;4991723;28;20122;-91
2023/06/05 00:59:38;;;;;;;6.32;2.90;;;;;;;11.72;100.00;102075.31;4975205;28;20442;-91
2023/06/05 01:02:04;;;;;;;5.83;2.80;;;;;;;11.68;100.00;102076.81;4986787;28;20015;-91
2023/06/05 01:04:29;;;;;;;5.18;2.75;;;;;;;11.65;100.00;102083.50;4982862;28;20034;-92
2023/06/05 01:06:57;;;;;;;5.13;2.90;;;;;;;11.60;100.00;102074.47;4972222;28;20042;-92
2023/06/05 01:09:26;;;;;;;6.43;3.10;;;;;;;11.52;100.00;102078.34;4977708;28;20038;-91
2023/06/05 01:12:11;;;;;;;8.75;3.53;;;;;;;11.54;100.00;102081.59;4974175;28;20125;-91
2023/06/05 01:14:40;;;;;;;6.25;2.85;;;;;;;11.47;100.00;102080.91;4976327;28;20054;-91
2023/06/05 01:17:08;;;;;;;9.23;3.10;;;;;;;11.43;100.00;102075.19;4976880;28;20390;-92
2023/06/05 01:19:33;;;;;;;5.88;3.15;;;;;;;11.43;100.00;102074.38;4981779;28;20114;-92
2023/06/05 01:21:59;;;;;;;5.43;3.17;;;;;;;11.40;100.00;102074.84;4985874;28;20074;-91
2023/06/05 01:24:27;;;;;;;6.35;2.80;;;;;;;11.34;100.00;102061.28;4986057;28;20277;-92
2023/06/05 01:27:00;;;;;;;6.10;3.35;;;;;;;11.31;100.00;102067.16;4990575;28;20038;-91
2023/06/05 01:29:35;;;;;;;7.05;3.28;;;;;;;11.25;100.00;102068.06;4991614;28;20126;-91
2023/06/05 01:32:12;;;;;;;4.43;2.95;;;;;;;11.26;100.00;102072.38;4994726;28;20026;-91
2023/06/05 01:34:43;;;;;;;6.43;3.22;;;;;;;11.19;100.00;102066.28;5040411;23;20015;-90
2023/06/05 01:37:12;;;;;;;6.40;3.47;;;;;;;11.17;100.00;102065.72;4984908;28;20241;-91
2023/06/05 01:39:39;;;;;;;6.50;3.50;;;;;;;11.12;100.00;102069.09;4976267;28;20837;-90
2023/06/05 01:42:06;;;;;;;7.45;3.60;;;;;;;11.11;100.00;102066.66;4956781;29;20414;-91
2023/06/05 01:44:32;;;;;;;5.80;3.47;;;;;;;11.11;100.00;102062.09;4957706;29;20031;-90
2023/06/05 01:46:58;;;;;;;5.07;3.20;;;;;;;11.09;100.00;102055.34;4957708;29;20038;-90
2023/06/05 01:49:24;;;;;;;7.13;3.50;;;;;;;11.01;100.00;102057.28;4957963;29;20027;-91
2023/06/05 01:51:49;;;;;;;5.87;3.60;;;;;;;10.98;100.00;102060.44;4941132;29;20034;-91
2023/06/05 01:54:15;;;;;;;8.05;3.80;;;;;;;10.93;100.00;102060.31;4949919;29;20027;-90
2023/06/05 01:56:42;;;;;;;5.60;3.30;;;;;;;10.90;100.00;102056.22;4956492;29;20459;-91
2023/06/05 01:59:08;;;;;;;6.47;3.50;;;;;;;10.84;100.00;102050.97;4957048;29;20283;-91
2023/06/05 02:01:34;;;;;;;8.93;4.10;;;;;;;10.87;100.00;102051.31;4954630;28;20046;-92
2023/06/05 02:04:04;;;;;;;8.30;4.10;;;;;;;10.80;100.00;102049.78;4949274;29;20015;-91
2023/06/05 02:06:32;;;;;;;5.83;3.70;;;;;;;10.74;100.00;102048.84;4937685;29;20291;-91
2023/06/05 02:08:58;;;;;;;5.95;3.80;;;;;;;10.69;100.00;102043.34;4940188;29;20054;-90
2023/06/05 02:11:26;;;;;;;9.00;3.80;;;;;;;10.64;100.00;102046.72;4958240;29;20016;-91
2023/06/05 02:13:52;;;;;;;5.88;4.20;;;;;;;10.58;100.00;102044.97;4942595;29;20039;-91
2023/06/05 02:16:18;;;;;;;6.68;3.85;;;;;;;10.56;100.00;102047.03;4968175;28;20074;-90
2023/06/05 02:18:48;;;;;;;6.35;4.00;;;;;;;10.47;100.00;102035.81;4959431;29;20062;-91
2023/06/05 02:21:15;;;;;;;3.58;3.17;;;;;;;10.47;100.00;102040.34;4948541;28;20036;-90
2023/06/05 02:23:41;;;;;;;8.93;4.47;;;;;;;10.43;100.00;102038.13;4972294;29;20035;-90
2023/06/05 02:26:07;;;;;;;6.70;4.00;;;;;;;10.36;100.00;102039.22;4978945;29;20032;-90
2023/06/05 02:28:32;;;;;;;5.63;3.90;;;;;;;10.30;100.00;102041.78;4978410;28;20066;-90
2023/06/05 02:30:59;;;;;;;10.80;4.03;;;;;;;10.25;100.00;102048.84;4976781;29;20057;-91
2023/06/05 02:33:24;;;;;;;11.63;4.07;;;;;;;10.21;100.00;102027.06;4976028;29;20041;-91
2023/06/05 02:35:50;;;;;;;6.73;4.23;;;;;;;10.15;100.00;102034.13;4975707;29;20063;-91
2023/06/05 02:38:15;;;;;;;7.53;4.22;;;;;;;10.12;100.00;102033.78;4973361;29;20027;-91
2023/06/05 02:40:41;;;;;;;6.93;4.20;;;;;;;10.09;100.00;102024.31;4971221;28;20050;-91
2023/06/05 02:43:08;;;;;;;6.37;3.83;;;;;;;10.09;100.00;102024.31;4972159;29;20023;-91
2023/06/05 02:45:33;;;;;;;7.00;4.40;;;;;;;9.99;100.00;102029.38;4960557;29;20294;-90
2023/06/05 02:47:59;;;;;;;5.03;4.53;;;;;;;10.02;100.00;102022.75;4963774;29;20035;-91
2023/06/05 02:50:24;;;;;;;8.10;4.33;;;;;;;9.96;100.00;102022.59;4972119;29;20031;-91
2023/06/05 02:52:49;;;;;;;8.32;4.47;;;;;;;9.95;100.00;102026.31;4972828;29;20035;-91
2023/06/05 02:55:16;;;;;;;7.53;4.90;;;;;;;9.88;100.00;102022.09;4972154;29;20114;-91
2023/06/05 02:57:41;;;;;;;8.10;4.40;;;;;;;9.84;100.00;102025.25;4972502;28;20047;-89
2023/06/05 03:00:14;;;;;;;6.93;4.27;;;;;;;9.80;100.00;102026.72;4973889;29;20078;-90
2023/06/05 03:02:40;;;;;;;9.65;4.57;;;;;;;9.73;100.00;102015.25;4955275;28;20027;-93
2023/06/05 03:05:06;;;;;;;8.38;4.90;;;;;;;9.75;100.00;102025.75;4970865;28;20091;-91
2023/06/05 03:07:33;;;;;;;8.47;4.83;;;;;;;9.67;100.00;102018.84;4968192;28;20086;-93
2023/06/05 03:09:59;;;;;;;8.63;4.65;;;;;;;9.65;100.00;102028.94;4963310;28;20030;-93
2023/06/05 03:12:27;;;;;;;8.38;4.55;;;;;;;9.59;100.00;102022.59;4958978;29;20024;-96
2023/06/05 03:14:52;;;;;;;9.63;4.93;;;;;;;9.55;100.00;102022.22;4959290;29;20117;-95
2023/06/05 03:17:19;;;;;;;9.67;5.33;;;;;;;9.52;100.00;102021.88;4957187;28;20593;-95
2023/06/05 03:19:44;;;;;;;8.80;5.22;;;;;;;9.46;100.00;102012.03;4960082;29;20050;-93
2023/06/05 03:22:10;;;;;;;7.37;4.90;;;;;;;9.47;100.00;102017.19;4954251;28;20352;-93
2023/06/05 03:24:37;;;;;;;7.17;4.70;;;;;;;9.51;100.00;102013.00;4955931;29;20074;-92
2023/06/05 03:27:04;;;;;;;8.02;5.07;;;;;;;9.47;100.00;102005.66;4955376;29;20066;-94
2023/06/05 03:29:29;;;;;;;10.85;5.40;;;;;;;9.41;100.00;102007.34;4955745;28;20035;-93
2023/06/05 03:31:54;;;;;;;9.13;4.87;;;;;;;9.44;100.00;102006.91;4946605;29;20046;-94
2023/06/05 03:34:20;;;;;;;11.73;5.73;;;;;;;9.39;100.00;102009.44;4939468;29;20138;-94
2023/06/05 03:36:45;;;;;;;8.90;5.13;;;;;;;9.33;100.00;101991.56;4975001;29;20031;-95
2023/06/05 03:39:18;;;;;;;8.20;4.95;;;;;;;9.43;100.00;102010.63;4960972;29;20023;-95
2023/06/05 03:41:44;;;;;;;11.90;6.00;;;;;;;9.44;100.00;102008.75;4966752;28;20019;-95
2023/06/05 03:44:09;;;;;;;8.27;5.90;;;;;;;9.36;100.00;102000.00;4971175;28;20535;-96
2023/06/05 03:46:35;;;;;;;8.20;5.77;;;;;;;9.39;100.00;101999.56;4957658;29;20031;-95
2023/06/05 03:49:08;;;;;;;10.27;5.78;;;;;;;9.32;100.00;101997.97;4959502;29;20103;-95
2023/06/05 03:51:34;;;;;;;6.93;5.10;;;;;;;9.39;100.00;102004.91;4938054;29;20028;-94
2023/06/05 03:54:00;;;;;;;10.27;5.80;;;;;;;9.40;100.00;102009.19;4937584;29;20023;-94
2023/06/05 03:56:34;;;;;;;9.38;5.40;;;;;;;9.44;100.00;102008.75;4941615;29;20031;-95
2023/06/05 03:59:08;;;;;;;8.73;5.85;;;;;;;9.48;100.00;102016.16;5184249;23;20061;-96
2023/06/05 04:01:55;;;;;;;9.10;6.13;;;;;;;9.47;100.00;102017.19;4997409;28;20014;-90
2023/06/05 04:04:22;;;;;;;11.00;6.00;;;;;;;9.24;100.00;101970.47;4994827;28;20126;-92
2023/06/05 04:06:47;;;;;;;12.32;5.60;;;;;;;9.49;100.00;102004.41;4993592;28;20027;-91
2023/06/05 04:09:13;;;;;;;12.87;6.37;;;;;;;9.51;100.00;102002.31;4996594;28;20023;-92
2023/06/05 04:11:40;;;;;;;15.00;5.80;;;;;;;9.63;100.00;102006.94;4995418;28;20011;-93
2023/06/05 04:14:05;;;;;;;10.37;5.77;;;;;;;9.61;100.00;102000.97;4993651;28;20030;-92
2023/06/05 04:16:31;;;;;;;10.80;6.10;;;;;;;9.76;100.00;102014.81;4995529;28;20744;-94
2023/06/05 04:18:58;;;;;;;13.13;6.47;;;;;;;9.77;100.00;102011.09;4995109;28;20011;-94
2023/06/05 04:21:24;;;;;;;10.52;6.55;;;;;;;9.78;100.00;102002.03;4985425;28;20023;-94
2023/06/05 04:23:50;;;;;;;10.67;6.30;;;;;;;9.87;100.00;102013.25;4962670;28;20031;-94
2023/06/05 04:26:17;;;;;;;10.27;6.33;;;;;;;9.92;100.00;102007.22;4977242;28;20315;-93
2023/06/05 04:28:43;;;;;;;9.45;5.53;;;;;;;10.04;100.00;102018.00;4974094;28;20058;-89
2023/06/05 04:31:09;;;;;;;8.23;5.95;;;;;;;10.04;100.00;102024.19;4967832;28;20022;-94
2023/06/05 04:33:34;;;;;;;12.32;6.88;;;;;;;9.97;100.00;102016.22;4973946;28;20043;-92
2023/06/05 04:36:00;;;;;;;10.53;5.83;;;;;;;9.98;100.00;102017.84;4974392;28;20523;-88
2023/06/05 04:38:25;;;;;;;8.67;5.87;;;;;;;10.08;100.00;102024.53;4970990;28;20038;-88
2023/06/05 04:40:51;;;;;;;9.63;6.20;;;;;;;10.17;100.00;102030.41;4974178;28;20027;-88
2023/06/05 04:43:17;;;;;;;11.67;6.60;;;;;;;10.21;100.00;102016.34;4970769;28;20027;-88
2023/06/05 04:45:42;;;;;;;12.27;6.28;;;;;;;10.43;100.00;102029.28;4972263;28;20399;-90
2023/06/05 04:48:08;;;;;;;11.70;6.57;;;;;;;10.54;100.00;102022.31;4977280;28;20034;-91
2023/06/05 04:50:35;;;;;;;8.55;6.20;;;;;;;11.04;100.00;102029.22;4977549;28;20460;-91
2023/06/05 04:53:01;;;;;;;10.88;6.75;;;;;;;12.03;100.00;102035.69;4957515;28;20095;-90
2023/06/05 04:55:26;;;;;;;9.47;6.57;;;;;;;12.92;100.00;102046.19;4986688;28;20090;-91
2023/06/05 04:57:54;;;;;;;9.90;6.37;;;;;;;13.70;98.20;102048.97;4991029;28;20344;-93
2023/06/05 05:00:20;;;;;;;9.35;6.65;;;;;;;14.33;93.31;102045.97;4974400;28;20039;-91
2023/06/05 05:02:45;;;;;;;8.25;5.70;;;;;;;14.81;88.98;102040.78;4985515;28;20042;-90
2023/06/05 05:05:13;;;;;;;9.07;5.80;;;;;;;15.09;86.93;102043.44;4984240;28;20039;-92
2023/06/05 05:07:40;;;;;;;8.73;5.97;;;;;;;15.47;83.74;102041.53;4974132;28;20031;-91
2023/06/05 05:10:08;;;;;;;10.07;6.13;;;;;;;15.51;82.52;102049.91;4973695;28;20109;-91
2023/06/05 05:12:33;;;;;;;11.27;6.50;;;;;;;15.60;81.51;102043.75;4974761;28;20070;-90
2023/06/05 05:14:58;;;;;;;10.13;6.20;;;;;;;15.67;80.44;102045.41;4975052;28;20035;-91
2023/06/05 05:17:24;;;;;;;10.10;6.03;;;;;;;15.61;80.22;102044.56;4980705;28;20030;-90
2023/06/05 05:19:49;;;;;;;9.73;5.82;;;;;;;15.80;79.16;102042.22;4979468;28;20601;-88
2023/06/05 05:22:15;;;;;;;9.37;6.23;;;;;;;15.97;77.65;102035.84;4976971;28;20098;-90
2023/06/05 05:24:40;;;;;;;11.15;6.47;;;;;;;16.11;76.86;102036.97;4976728;28;20474;-87
2023/06/05 05:27:08;;;;;;;12.27;5.53;;;;;;;16.40;76.30;102038.38;4975317;28;20041;-90
2023/06/05 05:29:33;;;;;;;7.50;5.93;;;;;;;16.77;73.82;102040.88;4974216;28;20031;-86
2023/06/05 05:31:59;;;;;;;12.63;6.53;;;;;;;16.98;72.16;102038.16;4962390;28;20039;-89
2023/06/05 05:34:26;;;;;;;10.23;6.23;;;;;;;17.04;71.00;102047.91;4976651;28;20031;-89
2023/06/05 05:36:52;;;;;;;9.45;5.65;;;;;;;17.05;71.89;102032.50;4969596;28;20109;-86
2023/06/05 05:39:18;;;;;;;11.03;6.10;;;;;;;17.13;69.47;102039.25;4963641;28;20479;-87
2023/06/05 05:41:43;;;;;;;11.10;6.47;;;;;;;17.33;68.96;102047.34;4952265;28;20059;-87
2023/06/05 05:44:08;;;;;;;13.20;6.00;;;;;;;17.48;69.07;102053.81;4972243;28;20069;-87
2023/06/05 05:46:34;;;;;;;9.50;6.25;;;;;;;17.57;68.23;102046.75;4968928;28;20150;-87
2023/06/05 05:49:01;;;;;;;11.23;6.33;;;;;;;17.43;68.55;102051.13;4953463;29;20034;-87
2023/06/05 05:51:26;;;;;;;11.35;6.43;;;;;;;17.31;68.05;102035.16;4953167;28;20033;-87
2023/06/05 05:53:51;;;;;;;9.93;6.67;;;;;;;17.12;68.89;102040.34;4948890;28;20122;-87
2023/06/05 05:56:18;;;;;;;8.93;6.00;;;;;;;16.76;69.73;102041.94;4971779;28;20520;-88
2023/06/05 05:58:44;;;;;;;12.68;6.97;;;;;;;16.29;71.33;102042.94;4968440;28;20058;-88
2023/06/05 06:01:11;;;;;;;9.70;6.20;;;;;;;15.97;73.37;102041.25;4972397;28;20023;-88
2023/06/05 06:03:37;;;;;;;12.15;6.55;;;;;;;15.82;74.92;102041.94;4968628;28;20032;-89
2023/06/05 06:06:06;;;;;;;9.32;6.72;;;;;;;15.94;75.02;102048.00;4935306;29;20078;-87
2023/06/05 06:08:33;;;;;;;10.20;7.20;;;;;;;15.90;75.95;102053.09;4954760;28;20028;-89
2023/06/05 06:10:59;;;;;;;11.18;7.10;;;;;;;15.56;76.34;102049.94;4969752;28;20026;-87
2023/06/05 06:13:24;;;;;;;13.05;6.93;;;;;;;15.38;77.29;102061.97;4968814;28;20041;-88
2023/06/05 06:15:50;;;;;;;9.80;7.13;;;;;;;15.29;79.36;102059.78;4956895;28;20058;-86
2023/06/05 06:18:15;;;;;;;11.27;7.53;;;;;;;15.27;78.69;102061.09;4987860;28;20562;-88
2023/06/05 06:20:41;;;;;;;11.15;7.00;;;;;;;15.28;79.82;102066.25;4976641;28;20019;-89
2023/06/05 06:23:06;;;;;;;11.73;7.20;;;;;;;15.20;78.23;102060.50;4980085;28;20023;-88
2023/06/05 06:25:33;;;;;;;14.73;7.07;;;;;;;15.16;80.92;102059.41;4982533;28;20070;-86
2023/06/05 06:27:59;;;;;;;10.00;5.90;;;;;;;15.22;79.06;102059.19;4975141;28;20030;-86
2023/06/05 06:30:25;;;;;;;10.85;6.40;;;;;;;14.99;78.34;102058.47;4976035;28;20118;-89
2023/06/05 06:32:51;;;;;;;8.90;6.03;;;;;;;14.94;78.23;102054.91;4958493;28;20055;-90
2023/06/05 06:35:16;;;;;;;9.03;6.10;;;;;;;14.80;76.86;102041.03;4978127;28;20171;-91
2023/06/05 06:37:42;;;;;;;9.90;6.00;;;;;;;14.98;79.23;102050.63;4975383;28;20058;-89
2023/06/05 06:40:09;;;;;;;10.50;6.53;;;;;;;15.06;78.37;102057.44;4969712;28;20510;-88
2023/06/05 06:42:35;;;;;;;9.75;6.65;;;;;;;15.05;79.19;102059.34;4967753;28;20038;-88
2023/06/05 06:45:04;;;;;;;14.40;6.82;;;;;;;14.88;80.27;102050.56;4977913;28;20066;-88
2023/06/05 06:47:30;;;;;;;12.40;6.53;;;;;;;15.03;81.23;102066.88;4978691;28;20027;-89
2023/06/05 06:49:56;;;;;;;9.68;6.07;;;;;;;15.19;79.65;102056.19;4970493;28;20027;-88
2023/06/05 06:52:22;;;;;;;15.07;6.10;;;;;;;15.24;78.08;102053.53;4976009;28;20022;-88
2023/06/05 06:54:47;;;;;;;10.17;5.97;;;;;;;15.38;78.97;102061.97;4972107;28;20325;-89
2023/06/05 06:57:12;;;;;;;10.80;6.97;;;;;;;15.38;78.40;102067.38;4974967;28;20158;-88
2023/06/05 06:59:40;;;;;;;10.30;6.40;;;;;;;15.32;77.14;102049.53;4973244;28;20206;-89
2023/06/05 07:02:11;;;;;;;10.37;6.77;;;;;;;15.57;77.76;102075.88;4974066;28;20302;-89
2023/06/05 07:04:38;;;;;;;10.77;6.72;;;;;;;15.59;78.72;102071.03;4949955;28;20058;-89
2023/06/05 07:07:04;;;;;;;8.40;6.90;;;;;;;15.45;77.56;102074.19;4972658;28;20559;-90
2023/06/05 07:09:29;;;;;;;9.25;6.70;;;;;;;15.29;78.39;102070.56;4972895;28;20039;-85
2023/06/05 07:11:54;;;;;;;10.60;6.60;;;;;;;15.54;79.38;102082.59;4954883;28;20043;-86
2023/06/05 07:14:21;;;;;;;8.85;6.40;;;;;;;15.62;78.61;102077.78;4970940;28;20055;-87
2023/06/05 07:16:48;;;;;;;9.27;6.67;;;;;;;15.59;77.37;102076.44;4967901;28;20090;-87
2023/06/05 07:25:24;;;;;;;10.63;6.70;;;;;;;15.75;76.52;102040.31;4977413;28;20502;-86
2023/06/05 07:27:50;;;;;;;12.63;6.70;;;;;;;15.89;77.12;102043.34;4974490;28;20117;-86
2023/06/05 07:30:16;;;;;;;13.17;6.30;;;;;;;16.29;74.93;102083.50;4974932;28;20463;-87
2023/06/05 07:32:42;;;;;;;12.23;5.70;;;;;;;16.49;75.09;102080.88;4974528;28;20275;-87
2023/06/05 07:35:08;;;;;;;12.85;6.40;;;;;;;16.61;73.90;102085.25;4985095;28;20389;-87
2023/06/05 07:37:34;;;;;;;10.73;6.00;;;;;;;16.70;72.68;102080.91;4986358;28;20042;-87
2023/06/05 07:39:59;;;;;;;10.77;6.03;;;;;;;16.75;72.53;102089.03;4979514;28;20041;-87
2023/06/05 07:42:25;;;;;;;9.20;6.30;;;;;;;16.80;72.77;102090.94;4956530;28;20426;-84
2023/06/05 07:44:50;;;;;;;12.77;6.28;;;;;;;16.84;72.79;102083.06;4987150;28;20027;-87
2023/06/05 07:47:16;;;;;;;10.27;6.50;;;;;;;16.94;72.13;102094.72;4973100;28;20035;-87
2023/06/05 07:49:41;;;;;;;8.88;5.65;;;;;;;16.98;71.66;102086.91;4976426;28;20042;-86
2023/06/05 07:52:07;;;;;;;11.17;5.60;;;;;;;17.15;72.34;102086.63;4974008;28;20466;-87
2023/06/05 07:54:34;;;;;;;10.10;5.63;;;;;;;17.23;68.67;102080.69;4974452;28;20050;-87
2023/06/05 07:56:59;;;;;;;9.93;6.55;;;;;;;17.12;68.84;102081.75;4957731;28;20027;-87
2023/06/05 07:59:27;;;;;;;10.77;6.20;;;;;;;17.06;69.42;102086.38;4972818;28;20141;-86
2023/06/05 08:01:54;;;;;;;12.43;5.85;;;;;;;17.10;69.80;102082.03;4973226;28;20445;-87
2023/06/05 08:04:19;;;;;;;10.93;6.03;;;;;;;17.24;68.86;102079.59;4973568;28;20025;-86
2023/06/05 08:06:46;;;;;;;11.53;5.67;;;;;;;17.35;68.91;102082.28;4973226;28;20038;-87
2023/06/05 08:09:12;;;;;;;11.20;6.15;;;;;;;17.51;68.79;102083.88;4974264;28;20070;-87
2023/06/05 08:11:38;;;;;;;11.90;5.80;;;;;;;17.58;67.57;102083.59;4956700;28;20522;-87
2023/06/05 08:14:06;;;;;;;9.38;5.47;;;;;;;17.61;67.00;102090.38;4981535;28;20474;-88
2023/06/05 08:16:31;;;;;;;9.70;5.88;;;;;;;17.61;68.18;102071.41;4983199;28;20039;-87
2023/06/05 08:18:57;;;;;;;17.95;6.45;;;;;;;17.85;66.33;102085.16;4982457;28;20101;-87
2023/06/05 08:21:22;;;;;;;9.23;6.10;;;;;;;17.95;66.57;102078.88;4973052;28;20113;-88
2023/06/05 08:23:47;;;;;;;13.90;6.43;;;;;;;17.92;66.03;102071.28;4972684;28;20038;-87
2023/06/05 08:26:13;;;;;;;11.40;6.13;;;;;;;18.05;66.11;102075.34;4972441;28;20027;-87
2023/06/05 08:28:39;;;;;;;9.07;5.77;;;;;;;18.20;65.50;102067.13;4972869;28;20146;-88
2023/06/05 08:31:05;;;;;;;9.15;6.20;;;;;;;18.31;65.19;102076.81;4985476;28;20062;-87
2023/06/05 08:33:32;;;;;;;12.67;6.10;;;;;;;18.36;64.53;102058.91;4990719;28;20093;-86
2023/06/05 08:35:57;;;;;;;11.55;5.82;;;;;;;18.40;65.41;102049.91;4978420;28;20135;-87
2023/06/05 08:38:24;;;;;;;14.13;5.63;;;;;;;18.50;64.23;102051.75;4972672;28;20085;-87
2023/06/05 08:40:58;;;;;;;9.25;5.72;;;;;;;18.61;62.79;102056.03;4972765;28;20054;-87
2023/06/05 08:43:23;;;;;;;10.33;5.80;;;;;;;18.89;63.04;102053.63;4971538;28;20109;-88
2023/06/05 08:45:51;;;;;;;8.95;5.15;;;;;;;19.00;62.43;102051.66;4974123;28;20133;-87
2023/06/05 08:48:19;;;;;;;9.85;5.55;;;;;;;19.10;59.85;102055.38;4982106;28;20026;-92
2023/06/05 08:50:45;;;;;;;7.87;5.67;;;;;;;19.17;61.21;102053.94;4976594;28;20051;-90
2023/06/05 08:53:12;;;;;;;11.20;6.03;;;;;;;19.12;60.31;102040.44;4978007;28;20286;-92
2023/06/05 08:55:39;;;;;;;14.05;6.22;;;;;;;19.27;59.55;102052.22;4978473;28;20027;-91
2023/06/05 08:58:05;;;;;;;7.20;5.35;;;;;;;19.45;59.62;102051.50;4993706;28;20019;-90
2023/06/05 09:00:31;;;;;;;9.88;5.88;;;;;;;19.55;58.61;102056.00;4980180;28;20483;-89
2023/06/05 09:02:57;;;;;;;10.10;5.63;;;;;;;19.60;58.33;102050.53;4979982;28;20042;-89
2023/06/05 09:05:22;;;;;;;11.87;5.97;;;;;;;19.62;58.08;102050.22;4979380;28;20027;-84
2023/06/05 09:07:48;;;;;;;13.20;7.20;;;;;;;19.71;57.33;102059.38;4970005;28;20313;-88
2023/06/05 09:10:28;;;;;;;10.97;5.73;;;;;;;19.71;57.78;102043.06;4955813;28;20027;-90
2023/06/05 09:12:55;;;;;;;8.52;5.22;;;;;;;19.84;55.78;102057.84;4972919;28;20026;-91
2023/06/05 09:15:23;;;;;;;11.45;5.75;;;;;;;19.89;56.10;102055.09;4992780;28;20037;-89
2023/06/05 09:17:48;;;;;;;9.13;5.53;;;;;;;20.08;55.09;102046.97;4965790;28;20042;-89
2023/06/05 09:20:24;;;;;;;9.93;5.83;;;;;;;20.23;56.66;102045.94;4971679;28;20027;-92
2023/06/05 09:22:49;;;;;;;12.77;5.95;;;;;;;20.09;56.58;102043.13;4985393;28;20073;-89
2023/06/05 09:25:15;;;;;;;10.50;6.00;;;;;;;20.30;56.15;102050.19;4961544;28;20030;-91
2023/06/05 09:44:07;;;;;;;9.50;5.95;;;;;;;21.05;52.73;102028.59;5389975;23;21677;-89
2023/06/05 09:46:34;;;;;;;11.73;5.80;;;;;;;21.24;51.18;102042.16;4944197;29;20047;-89
2023/06/05 09:49:00;;;;;;;13.93;5.82;;;;;;;21.40;52.26;102040.75;4939249;29;20136;-93
2023/06/05 09:51:25;;;;;;;9.90;5.83;;;;;;;21.62;51.55;102048.25;4927362;29;20027;-92
2023/06/05 09:53:50;;;;;;;12.50;6.03;;;;;;;21.62;50.10;102048.25;4931467;29;20028;-94
2023/06/05 09:56:17;;;;;;;11.43;6.63;;;;;;;21.68;50.63;102050.88;4942999;29;20390;-94
2023/06/05 10:06:51;;;;;;;10.10;5.90;;;;;;;21.77;50.33;102028.03;1292795;26;20306;-90
2023/06/05 10:11:56;;;;;;;9.00;6.22;;;;;;;21.79;50.78;102000.44;5043387;23;20052;-93
2023/06/05 10:14:47;;;;;;;8.65;5.32;;;;;;;22.23;49.89;102028.13;4963264;28;20031;-91
2023/06/05 10:18:07;;;;;;;10.20;5.40;;;;;;;22.18;50.93;101988.13;4967826;28;20020;-92
2023/06/05 10:24:41;;;;;;;9.70;4.70;;;;;;;22.65;48.29;102022.50;4928465;29;20051;-92
2023/06/05 10:27:09;;;;;;;11.38;4.90;;;;;;;22.45;48.44;102016.47;4956013;29;20024;-93
2023/06/05 10:29:50;;;;;;;8.23;5.18;;;;;;;22.63;48.71;102016.59;4960092;28;20027;-90
2023/06/05 10:32:21;;;;;;;12.70;4.90;;;;;;;22.51;46.49;102008.94;4961264;28;20083;-91
2023/06/05 10:34:54;;;;;;;7.50;4.53;;;;;;;22.69;46.63;102010.69;4953809;29;20293;-92
2023/06/05 10:37:47;;;;;;;13.13;4.63;;;;;;;22.90;47.51;102010.16;4973277;28;20015;-91
2023/06/05 10:40:18;;;;;;;7.13;4.50;;;;;;;22.83;48.09;102007.84;4973968;28;20015;-92
2023/06/05 10:42:44;;;;;;;11.10;4.50;;;;;;;23.09;47.44;102012.63;4957090;29;20035;-92
2023/06/05 10:45:29;;;;;;;9.10;5.40;;;;;;;23.16;45.73;102016.84;4946598;28;20360;-92
2023/06/05 10:47:55;;;;;;;8.95;5.57;;;;;;;23.00;46.10;102009.06;4940915;29;20223;-92
2023/06/05 11:04:57;;;;;;;;;;;;;;;;;;;;;
2023/06/05 11:14:18;;;;;;;6.78;4.93;;;;;;;23.92;43.35;101980.19;4977207;29;20097;-92
2023/06/05 11:20:50;;;;;;;6.85;4.30;;;;;;;23.98;44.38;101994.56;4989675;28;20033;-92
2023/06/05 11:24:32;;;;;;;;;;;;;;;;;;;;;
2023/06/05 11:35:38;;;;;;;5.97;3.55;;;;;;;24.69;39.95;101978.84;5112143;23;21980;-88
2023/06/05 11:38:24;;;;;;;7.73;3.73;;;;;;;24.97;41.32;101978.47;5014907;28;20057;-93
2023/06/05 11:40:55;;;;;;;10.13;4.40;;;;;;;24.94;41.60;101967.03;4999520;28;20290;-95
2023/06/05 11:43:21;;;;;;;11.15;4.60;;;;;;;24.82;41.19;101933.22;4968066;29;20059;-86
2023/06/05 11:46:16;;;;;;;6.63;3.67;;;;;;;25.15;41.36;101971.78;4966785;29;20042;-89
2023/06/05 11:48:50;;;;;;;7.90;3.35;;;;;;;25.40;40.70;101971.94;4956582;29;20051;-87
2023/06/05 11:51:50;;;;;;;7.37;3.63;;;;;;;25.27;41.10;101931.84;4937424;29;20090;-88
2023/06/05 11:54:26;;;;;;;10.20;3.67;;;;;;;25.74;39.97;101967.41;4963233;28;20289;-89
2023/06/05 11:56:57;;;;;;;6.90;3.15;;;;;;;25.60;38.35;101964.09;4962948;28;20043;-87
2023/06/05 11:59:24;;;;;;;5.40;3.35;;;;;;;25.49;38.28;101966.44;4972166;28;20043;-86
2023/06/05 12:01:50;;;;;;;8.43;3.78;;;;;;;25.38;38.60;101955.81;4971767;28;20027;-90
2023/06/05 12:04:15;;;;;;;9.90;3.88;;;;;;;25.43;37.98;101957.59;4973178;28;20474;-90
2023/06/05 12:06:42;;;;;;;6.27;3.80;;;;;;;25.37;39.19;101958.91;4972933;28;20113;-89
2023/06/05 12:09:10;;;;;;;5.35;3.45;;;;;;;25.30;38.01;101950.38;4971253;28;20038;-84
2023/06/05 12:11:37;;;;;;;8.98;3.95;;;;;;;25.35;38.25;101955.69;4972714;28;20102;-85
2023/06/05 12:14:03;;;;;;;5.13;3.03;;;;;;;25.56;38.04;101953.00;4972063;28;20027;-85
2023/06/05 12:16:35;;;;;;;7.00;3.43;;;;;;;25.39;37.46;101951.94;4972098;28;20549;-88
2023/06/05 12:19:01;;;;;;;5.78;3.45;;;;;;;25.65;37.46;101947.44;4972338;28;20033;-84
2023/06/05 12:21:27;;;;;;;5.55;3.65;;;;;;;25.67;36.72;101950.66;4968122;28;20090;-84
2023/06/05 12:24:04;;;;;;;6.32;3.78;;;;;;;25.74;37.47;101945.44;4972063;28;20023;-85
2023/06/05 12:26:30;;;;;;;6.32;3.45;;;;;;;25.92;37.66;101945.31;4971383;28;20041;-85
2023/06/05 12:29:06;;;;;;;7.33;3.37;;;;;;;26.17;37.35;101934.41;4971049;28;20386;-84
2023/06/05 12:31:35;;;;;;;4.13;3.40;;;;;;;26.14;35.44;101942.19;4936853;29;20289;-85
2023/06/05 12:34:15;;;;;;;5.57;3.35;;;;;;;26.11;36.14;101937.38;4947258;28;20026;-87
2023/06/05 12:42:37;;;;;;;7.40;3.33;;;;;;;26.32;35.96;101906.31;4973510;28;20110;-87